sensor_id;sensor_type;location;lat;lon;timestamp;P1;durP1;ratioP1;P2;durP2;ratioP2
21941;SDS011;11135;54.192;15.670;2023-04-01T00:01:03;10.77;;;4.68;;
21941;SDS011;11135;54.192;15.670;2023-04-01T00:04:10;6.80;;;3.40;;
21941;SDS011;11135;54.192;15.670;2023-04-01T00:07:17;8.52;;;4.63;;
21941;SDS011;11135;54.192;15.670;2023-04-01T00:10:23;4.65;;;2.85;;
21941;SDS011;11135;54.192;15.670;2023-04-01T00:13:34;9.18;;;5.07;;
21941;SDS011;11135;54.192;15.670;2023-04-01T00:16:40;10.15;;;5.15;;
21941;SDS011;11135;54.192;15.670;2023-04-01T00:19:46;8.05;;;3.83;;
21941;SDS011;11135;54.192;15.670;2023-04-01T00:22:52;11.40;;;4.65;;
21941;SDS011;11135;54.192;15.670;2023-04-01T00:25:59;8.98;;;5.05;;
21941;SDS011;11135;54.192;15.670;2023-04-01T00:29:09;13.13;;;6.63;;
21941;SDS011;11135;54.192;15.670;2023-04-01T00:32:14;13.85;;;5.05;;
21941;SDS011;11135;54.192;15.670;2023-04-01T00:35:20;5.85;;;2.85;;
21941;SDS011;11135;54.192;15.670;2023-04-01T00:38:26;11.05;;;3.75;;
21941;SDS011;11135;54.192;15.670;2023-04-01T00:41:35;7.43;;;2.85;;
21941;SDS011;11135;54.192;15.670;2023-04-01T00:44:45;8.27;;;3.38;;
21941;SDS011;11135;54.192;15.670;2023-04-01T00:47:51;4.88;;;2.78;;
21941;SDS011;11135;54.192;15.670;2023-04-01T00:50:57;6.70;;;3.00;;
21941;SDS011;11135;54.192;15.670;2023-04-01T00:54:03;9.43;;;4.20;;
21941;SDS011;11135;54.192;15.670;2023-04-01T00:57:10;4.47;;;2.55;;
21941;SDS011;11135;54.192;15.670;2023-04-01T01:00:21;16.55;;;4.78;;
21941;SDS011;11135;54.192;15.670;2023-04-01T01:03:28;9.48;;;4.50;;
21941;SDS011;11135;54.192;15.670;2023-04-01T01:06:39;7.25;;;2.80;;
21941;SDS011;11135;54.192;15.670;2023-04-01T01:09:48;6.00;;;2.85;;
21941;SDS011;11135;54.192;15.670;2023-04-01T01:12:59;8.68;;;3.90;;
21941;SDS011;11135;54.192;15.670;2023-04-01T01:16:10;8.82;;;3.88;;
21941;SDS011;11135;54.192;15.670;2023-04-01T01:19:23;10.20;;;4.60;;
21941;SDS011;11135;54.192;15.670;2023-04-01T01:22:43;10.80;;;4.25;;
21941;SDS011;11135;54.192;15.670;2023-04-01T01:25:59;13.20;;;5.70;;
21941;SDS011;11135;54.192;15.670;2023-04-01T01:29:11;11.00;;;4.50;;
21941;SDS011;11135;54.192;15.670;2023-04-01T01:32:32;10.52;;;4.45;;
21941;SDS011;11135;54.192;15.670;2023-04-01T01:35:42;10.02;;;3.50;;
21941;SDS011;11135;54.192;15.670;2023-04-01T01:38:49;17.55;;;6.43;;
21941;SDS011;11135;54.192;15.670;2023-04-01T01:41:55;18.00;;;6.97;;
21941;SDS011;11135;54.192;15.670;2023-04-01T01:45:02;12.10;;;5.13;;
21941;SDS011;11135;54.192;15.670;2023-04-01T01:48:08;15.18;;;6.60;;
21941;SDS011;11135;54.192;15.670;2023-04-01T01:51:18;15.30;;;6.18;;
21941;SDS011;11135;54.192;15.670;2023-04-01T01:54:27;9.43;;;4.80;;
21941;SDS011;11135;54.192;15.670;2023-04-01T01:57:34;9.85;;;5.20;;
21941;SDS011;11135;54.192;15.670;2023-04-01T02:00:43;19.58;;;6.63;;
21941;SDS011;11135;54.192;15.670;2023-04-01T02:03:51;16.80;;;5.55;;
21941;SDS011;11135;54.192;15.670;2023-04-01T02:07:02;12.52;;;5.47;;
21941;SDS011;11135;54.192;15.670;2023-04-01T02:10:10;19.63;;;7.97;;
21941;SDS011;11135;54.192;15.670;2023-04-01T02:13:20;16.58;;;5.32;;
21941;SDS011;11135;54.192;15.670;2023-04-01T02:16:28;10.32;;;4.35;;
21941;SDS011;11135;54.192;15.670;2023-04-01T02:19:38;12.45;;;4.90;;
21941;SDS011;11135;54.192;15.670;2023-04-01T02:22:47;14.82;;;5.00;;
21941;SDS011;11135;54.192;15.670;2023-04-01T02:25:55;15.75;;;5.47;;
21941;SDS011;11135;54.192;15.670;2023-04-01T02:29:01;19.13;;;7.38;;
21941;SDS011;11135;54.192;15.670;2023-04-01T02:32:08;13.15;;;5.65;;
21941;SDS011;11135;54.192;15.670;2023-04-01T02:35:15;19.02;;;7.00;;
21941;SDS011;11135;54.192;15.670;2023-04-01T02:38:25;13.90;;;4.25;;
21941;SDS011;11135;54.192;15.670;2023-04-01T02:41:38;10.00;;;4.63;;
21941;SDS011;11135;54.192;15.670;2023-04-01T02:44:44;7.15;;;3.75;;
21941;SDS011;11135;54.192;15.670;2023-04-01T02:47:50;14.45;;;5.55;;
21941;SDS011;11135;54.192;15.670;2023-04-01T02:50:56;11.95;;;5.75;;
21941;SDS011;11135;54.192;15.670;2023-04-01T02:54:08;9.15;;;4.80;;
21941;SDS011;11135;54.192;15.670;2023-04-01T02:57:13;10.82;;;4.40;;
21941;SDS011;11135;54.192;15.670;2023-04-01T03:00:19;13.30;;;5.38;;
21941;SDS011;11135;54.192;15.670;2023-04-01T03:03:25;12.00;;;4.82;;
21941;SDS011;11135;54.192;15.670;2023-04-01T03:06:33;13.60;;;5.38;;
21941;SDS011;11135;54.192;15.670;2023-04-01T03:09:41;10.27;;;4.65;;
21941;SDS011;11135;54.192;15.670;2023-04-01T03:12:47;12.35;;;4.35;;
21941;SDS011;11135;54.192;15.670;2023-04-01T03:15:55;8.63;;;3.53;;
21941;SDS011;11135;54.192;15.670;2023-04-01T03:19:15;8.15;;;3.63;;
21941;SDS011;11135;54.192;15.670;2023-04-01T03:22:21;9.50;;;4.40;;
21941;SDS011;11135;54.192;15.670;2023-04-01T03:25:32;6.55;;;3.65;;
21941;SDS011;11135;54.192;15.670;2023-04-01T03:28:38;9.07;;;5.28;;
21941;SDS011;11135;54.192;15.670;2023-04-01T03:31:44;9.88;;;4.53;;
21941;SDS011;11135;54.192;15.670;2023-04-01T03:34:49;8.60;;;4.18;;
21941;SDS011;11135;54.192;15.670;2023-04-01T03:37:55;11.10;;;4.88;;
21941;SDS011;11135;54.192;15.670;2023-04-01T03:41:04;7.57;;;3.92;;
21941;SDS011;11135;54.192;15.670;2023-04-01T03:44:14;5.78;;;3.33;;
21941;SDS011;11135;54.192;15.670;2023-04-01T03:47:20;6.43;;;3.83;;
21941;SDS011;11135;54.192;15.670;2023-04-01T03:50:25;5.72;;;3.50;;
21941;SDS011;11135;54.192;15.670;2023-04-01T03:53:33;6.72;;;3.42;;
21941;SDS011;11135;54.192;15.670;2023-04-01T03:56:42;5.60;;;2.60;;
21941;SDS011;11135;54.192;15.670;2023-04-01T03:59:47;7.00;;;3.33;;
21941;SDS011;11135;54.192;15.670;2023-04-01T04:02:54;6.68;;;3.15;;
21941;SDS011;11135;54.192;15.670;2023-04-01T04:06:00;7.90;;;4.30;;
21941;SDS011;11135;54.192;15.670;2023-04-01T04:09:06;7.80;;;3.00;;
21941;SDS011;11135;54.192;15.670;2023-04-01T04:12:15;6.85;;;3.00;;
21941;SDS011;11135;54.192;15.670;2023-04-01T04:15:21;5.95;;;2.17;;
21941;SDS011;11135;54.192;15.670;2023-04-01T04:18:27;9.20;;;3.30;;
21941;SDS011;11135;54.192;15.670;2023-04-01T04:21:33;8.82;;;3.13;;
21941;SDS011;11135;54.192;15.670;2023-04-01T04:24:39;7.20;;;4.13;;
21941;SDS011;11135;54.192;15.670;2023-04-01T04:27:47;5.50;;;3.45;;
21941;SDS011;11135;54.192;15.670;2023-04-01T04:30:54;7.53;;;3.00;;
21941;SDS011;11135;54.192;15.670;2023-04-01T04:34:00;7.68;;;2.22;;
21941;SDS011;11135;54.192;15.670;2023-04-01T04:37:11;6.57;;;3.10;;
21941;SDS011;11135;54.192;15.670;2023-04-01T04:40:17;6.03;;;2.63;;
21941;SDS011;11135;54.192;15.670;2023-04-01T04:43:26;7.75;;;3.42;;
21941;SDS011;11135;54.192;15.670;2023-04-01T04:46:32;8.82;;;2.78;;
21941;SDS011;11135;54.192;15.670;2023-04-01T04:49:40;5.97;;;2.53;;
21941;SDS011;11135;54.192;15.670;2023-04-01T04:52:45;6.43;;;2.38;;
21941;SDS011;11135;54.192;15.670;2023-04-01T04:55:52;11.25;;;3.47;;
21941;SDS011;11135;54.192;15.670;2023-04-01T04:59:01;8.27;;;2.83;;
21941;SDS011;11135;54.192;15.670;2023-04-01T05:02:07;6.68;;;2.40;;
21941;SDS011;11135;54.192;15.670;2023-04-01T05:05:16;5.38;;;1.75;;
21941;SDS011;11135;54.192;15.670;2023-04-01T05:08:22;3.75;;;1.48;;
21941;SDS011;11135;54.192;15.670;2023-04-01T05:11:27;5.10;;;2.20;;
21941;SDS011;11135;54.192;15.670;2023-04-01T05:14:39;5.43;;;2.15;;
21941;SDS011;11135;54.192;15.670;2023-04-01T05:17:47;2.83;;;1.48;;
21941;SDS011;11135;54.192;15.670;2023-04-01T05:20:56;7.45;;;2.60;;
21941;SDS011;11135;54.192;15.670;2023-04-01T05:24:03;7.53;;;2.92;;
21941;SDS011;11135;54.192;15.670;2023-04-01T05:27:11;8.02;;;3.47;;
21941;SDS011;11135;54.192;15.670;2023-04-01T05:30:22;7.30;;;2.88;;
21941;SDS011;11135;54.192;15.670;2023-04-01T05:33:28;6.45;;;2.92;;
21941;SDS011;11135;54.192;15.670;2023-04-01T05:36:36;9.05;;;3.33;;
21941;SDS011;11135;54.192;15.670;2023-04-01T05:39:42;7.72;;;2.92;;
21941;SDS011;11135;54.192;15.670;2023-04-01T05:42:50;7.53;;;3.47;;
21941;SDS011;11135;54.192;15.670;2023-04-01T05:46:01;5.68;;;2.55;;
21941;SDS011;11135;54.192;15.670;2023-04-01T05:49:07;6.25;;;2.83;;
21941;SDS011;11135;54.192;15.670;2023-04-01T05:52:13;9.07;;;3.28;;
21941;SDS011;11135;54.192;15.670;2023-04-01T05:55:21;9.98;;;3.60;;
21941;SDS011;11135;54.192;15.670;2023-04-01T05:58:27;6.00;;;2.30;;
21941;SDS011;11135;54.192;15.670;2023-04-01T06:01:41;4.30;;;1.90;;
21941;SDS011;11135;54.192;15.670;2023-04-01T06:04:47;2.70;;;2.00;;
21941;SDS011;11135;54.192;15.670;2023-04-01T06:07:57;5.18;;;2.40;;
21941;SDS011;11135;54.192;15.670;2023-04-01T06:11:07;5.93;;;2.15;;
21941;SDS011;11135;54.192;15.670;2023-04-01T06:14:20;8.57;;;2.42;;
21941;SDS011;11135;54.192;15.670;2023-04-01T06:17:41;4.63;;;2.58;;
21941;SDS011;11135;54.192;15.670;2023-04-01T06:20:53;3.90;;;2.30;;
21941;SDS011;11135;54.192;15.670;2023-04-01T06:24:11;9.95;;;2.63;;
21941;SDS011;11135;54.192;15.670;2023-04-01T06:27:23;5.97;;;2.67;;
21941;SDS011;11135;54.192;15.670;2023-04-01T06:30:38;4.30;;;2.22;;
21941;SDS011;11135;54.192;15.670;2023-04-01T06:44:11;4.00;;;1.80;;
21941;SDS011;11135;54.192;15.670;2023-04-01T06:50:48;6.00;;;2.33;;
21941;SDS011;11135;54.192;15.670;2023-04-01T06:53:59;3.95;;;2.28;;
21941;SDS011;11135;54.192;15.670;2023-04-01T06:57:13;7.32;;;2.63;;
21941;SDS011;11135;54.192;15.670;2023-04-01T07:00:26;3.95;;;2.10;;
21941;SDS011;11135;54.192;15.670;2023-04-01T07:03:35;4.85;;;1.98;;
21941;SDS011;11135;54.192;15.670;2023-04-01T07:06:42;4.30;;;2.95;;
21941;SDS011;11135;54.192;15.670;2023-04-01T07:09:55;4.45;;;2.72;;
21941;SDS011;11135;54.192;15.670;2023-04-01T07:13:02;6.15;;;2.58;;
21941;SDS011;11135;54.192;15.670;2023-04-01T07:16:16;6.45;;;3.10;;
21941;SDS011;11135;54.192;15.670;2023-04-01T07:19:25;9.50;;;2.90;;
21941;SDS011;11135;54.192;15.670;2023-04-01T07:22:36;3.92;;;2.50;;
21941;SDS011;11135;54.192;15.670;2023-04-01T07:25:44;7.65;;;2.60;;
21941;SDS011;11135;54.192;15.670;2023-04-01T07:28:52;4.82;;;2.10;;
21941;SDS011;11135;54.192;15.670;2023-04-01T07:35:24;5.50;;;3.10;;
21941;SDS011;11135;54.192;15.670;2023-04-01T07:38:35;9.05;;;3.85;;
21941;SDS011;11135;54.192;15.670;2023-04-01T07:41:47;5.70;;;3.15;;
21941;SDS011;11135;54.192;15.670;2023-04-01T07:44:59;7.28;;;3.58;;
21941;SDS011;11135;54.192;15.670;2023-04-01T07:48:14;8.02;;;4.05;;
21941;SDS011;11135;54.192;15.670;2023-04-01T07:51:24;7.32;;;2.88;;
21941;SDS011;11135;54.192;15.670;2023-04-01T07:54:36;4.30;;;2.25;;
21941;SDS011;11135;54.192;15.670;2023-04-01T07:57:47;20.88;;;5.30;;
21941;SDS011;11135;54.192;15.670;2023-04-01T08:00:56;8.27;;;4.38;;
21941;SDS011;11135;54.192;15.670;2023-04-01T08:07:33;6.72;;;4.03;;
21941;SDS011;11135;54.192;15.670;2023-04-01T08:10:45;9.32;;;3.60;;
21941;SDS011;11135;54.192;15.670;2023-04-01T08:13:54;5.07;;;2.22;;
21941;SDS011;11135;54.192;15.670;2023-04-01T08:17:04;4.88;;;2.58;;
21941;SDS011;11135;54.192;15.670;2023-04-01T08:20:18;5.72;;;2.58;;
21941;SDS011;11135;54.192;15.670;2023-04-01T08:23:32;8.57;;;4.18;;
21941;SDS011;11135;54.192;15.670;2023-04-01T08:26:39;7.57;;;2.92;;
21941;SDS011;11135;54.192;15.670;2023-04-01T08:29:49;6.85;;;5.00;;
21941;SDS011;11135;54.192;15.670;2023-04-01T08:33:03;10.23;;;3.90;;
21941;SDS011;11135;54.192;15.670;2023-04-01T08:36:17;6.32;;;2.92;;
21941;SDS011;11135;54.192;15.670;2023-04-01T08:39:28;8.88;;;4.55;;
21941;SDS011;11135;54.192;15.670;2023-04-01T08:42:42;7.28;;;3.05;;
21941;SDS011;11135;54.192;15.670;2023-04-01T08:49:13;5.72;;;2.45;;
21941;SDS011;11135;54.192;15.670;2023-04-01T08:52:25;9.30;;;4.20;;
21941;SDS011;11135;54.192;15.670;2023-04-01T08:55:42;5.32;;;2.40;;
21941;SDS011;11135;54.192;15.670;2023-04-01T09:05:36;8.57;;;3.60;;
21941;SDS011;11135;54.192;15.670;2023-04-01T09:08:49;9.65;;;4.30;;
21941;SDS011;11135;54.192;15.670;2023-04-01T09:12:10;8.65;;;4.13;;
21941;SDS011;11135;54.192;15.670;2023-04-01T09:25:38;6.80;;;2.80;;
21941;SDS011;11135;54.192;15.670;2023-04-01T09:28:51;7.30;;;4.05;;
21941;SDS011;11135;54.192;15.670;2023-04-01T09:32:12;9.73;;;4.85;;
21941;SDS011;11135;54.192;15.670;2023-04-01T09:35:22;9.23;;;2.72;;
21941;SDS011;11135;54.192;15.670;2023-04-01T09:38:29;9.90;;;5.15;;
21941;SDS011;11135;54.192;15.670;2023-04-01T09:41:35;6.28;;;2.95;;
21941;SDS011;11135;54.192;15.670;2023-04-01T09:44:52;5.90;;;3.05;;
21941;SDS011;11135;54.192;15.670;2023-04-01T09:48:05;4.18;;;2.40;;
21941;SDS011;11135;54.192;15.670;2023-04-01T09:51:21;6.57;;;2.67;;
21941;SDS011;11135;54.192;15.670;2023-04-01T09:54:32;6.87;;;4.10;;
21941;SDS011;11135;54.192;15.670;2023-04-01T10:01:22;4.60;;;2.17;;
21941;SDS011;11135;54.192;15.670;2023-04-01T10:08:04;5.47;;;3.30;;
21941;SDS011;11135;54.192;15.670;2023-04-01T10:11:15;5.22;;;1.73;;
21941;SDS011;11135;54.192;15.670;2023-04-01T10:14:32;5.75;;;1.65;;
21941;SDS011;11135;54.192;15.670;2023-04-01T10:17:59;6.15;;;2.35;;
21941;SDS011;11135;54.192;15.670;2023-04-01T10:21:22;4.47;;;2.33;;
21941;SDS011;11135;54.192;15.670;2023-04-01T10:24:44;3.20;;;2.08;;
21941;SDS011;11135;54.192;15.670;2023-04-01T10:38:30;9.52;;;3.03;;
21941;SDS011;11135;54.192;15.670;2023-04-01T10:45:24;3.33;;;1.55;;
21941;SDS011;11135;54.192;15.670;2023-04-01T10:52:21;4.22;;;1.80;;
21941;SDS011;11135;54.192;15.670;2023-04-01T10:59:01;4.30;;;1.75;;
21941;SDS011;11135;54.192;15.670;2023-04-01T11:05:46;9.43;;;3.35;;
21941;SDS011;11135;54.192;15.670;2023-04-01T11:19:27;5.50;;;1.85;;
21941;SDS011;11135;54.192;15.670;2023-04-01T11:22:46;7.30;;;2.00;;
21941;SDS011;11135;54.192;15.670;2023-04-01T11:26:03;7.20;;;1.88;;
21941;SDS011;11135;54.192;15.670;2023-04-01T11:29:15;3.65;;;1.90;;
21941;SDS011;11135;54.192;15.670;2023-04-01T11:32:31;3.63;;;2.03;;
21941;SDS011;11135;54.192;15.670;2023-04-01T11:35:54;7.30;;;2.25;;
21941;SDS011;11135;54.192;15.670;2023-04-01T11:39:15;5.07;;;2.03;;
21941;SDS011;11135;54.192;15.670;2023-04-01T11:42:34;7.10;;;2.22;;
21941;SDS011;11135;54.192;15.670;2023-04-01T11:45:47;5.70;;;2.45;;
21941;SDS011;11135;54.192;15.670;2023-04-01T11:59:35;6.47;;;2.60;;
21941;SDS011;11135;54.192;15.670;2023-04-01T12:02:48;14.00;;;5.25;;
21941;SDS011;11135;54.192;15.670;2023-04-01T12:06:02;7.78;;;3.53;;
21941;SDS011;11135;54.192;15.670;2023-04-01T12:09:21;4.65;;;2.13;;
21941;SDS011;11135;54.192;15.670;2023-04-01T12:12:32;8.48;;;2.97;;
21941;SDS011;11135;54.192;15.670;2023-04-01T12:16:07;4.18;;;2.30;;
21941;SDS011;11135;54.192;15.670;2023-04-01T12:19:15;4.63;;;2.28;;
21941;SDS011;11135;54.192;15.670;2023-04-01T12:22:26;9.07;;;2.80;;
21941;SDS011;11135;54.192;15.670;2023-04-01T12:25:38;9.37;;;3.23;;
21941;SDS011;11135;54.192;15.670;2023-04-01T12:28:56;8.50;;;2.60;;
21941;SDS011;11135;54.192;15.670;2023-04-01T12:32:14;6.88;;;3.08;;
21941;SDS011;11135;54.192;15.670;2023-04-01T12:35:21;6.35;;;2.75;;
21941;SDS011;11135;54.192;15.670;2023-04-01T12:38:31;5.82;;;2.72;;
21941;SDS011;11135;54.192;15.670;2023-04-01T12:41:42;9.57;;;3.20;;
21941;SDS011;11135;54.192;15.670;2023-04-01T12:44:57;8.05;;;3.00;;
21941;SDS011;11135;54.192;15.670;2023-04-01T12:48:12;4.47;;;1.92;;
21941;SDS011;11135;54.192;15.670;2023-04-01T12:51:29;6.90;;;2.65;;
21941;SDS011;11135;54.192;15.670;2023-04-01T12:54:47;6.65;;;2.33;;
21941;SDS011;11135;54.192;15.670;2023-04-01T13:11:40;4.65;;;2.22;;
21941;SDS011;11135;54.192;15.670;2023-04-01T13:14:56;5.03;;;2.08;;
21941;SDS011;11135;54.192;15.670;2023-04-01T13:18:14;5.57;;;1.83;;
21941;SDS011;11135;54.192;15.670;2023-04-01T13:21:25;5.45;;;1.98;;
21941;SDS011;11135;54.192;15.670;2023-04-01T13:24:37;3.28;;;1.90;;
21941;SDS011;11135;54.192;15.670;2023-04-01T13:27:49;4.15;;;2.03;;
21941;SDS011;11135;54.192;15.670;2023-04-01T13:30:58;5.15;;;2.40;;
21941;SDS011;11135;54.192;15.670;2023-04-01T13:34:09;6.32;;;2.42;;
21941;SDS011;11135;54.192;15.670;2023-04-01T13:37:23;6.38;;;2.20;;
21941;SDS011;11135;54.192;15.670;2023-04-01T13:40:36;6.20;;;2.03;;
21941;SDS011;11135;54.192;15.670;2023-04-01T13:44:06;4.30;;;1.73;;
21941;SDS011;11135;54.192;15.670;2023-04-01T13:47:24;6.90;;;2.13;;
21941;SDS011;11135;54.192;15.670;2023-04-01T13:50:34;8.93;;;1.90;;
21941;SDS011;11135;54.192;15.670;2023-04-01T13:53:51;5.93;;;2.63;;
21941;SDS011;11135;54.192;15.670;2023-04-01T13:57:03;8.95;;;2.63;;
21941;SDS011;11135;54.192;15.670;2023-04-01T14:00:23;3.95;;;2.35;;
21941;SDS011;11135;54.192;15.670;2023-04-01T14:03:39;9.32;;;2.53;;
21941;SDS011;11135;54.192;15.670;2023-04-01T14:06:50;4.43;;;1.88;;
21941;SDS011;11135;54.192;15.670;2023-04-01T14:10:07;8.13;;;3.38;;
21941;SDS011;11135;54.192;15.670;2023-04-01T14:13:21;6.10;;;2.15;;
21941;SDS011;11135;54.192;15.670;2023-04-01T14:16:47;4.40;;;1.80;;
21941;SDS011;11135;54.192;15.670;2023-04-01T14:20:02;8.00;;;1.88;;
21941;SDS011;11135;54.192;15.670;2023-04-01T14:23:17;5.00;;;1.75;;
21941;SDS011;11135;54.192;15.670;2023-04-01T14:29:52;4.75;;;2.25;;
21941;SDS011;11135;54.192;15.670;2023-04-01T14:33:04;6.03;;;2.42;;
21941;SDS011;11135;54.192;15.670;2023-04-01T14:36:22;4.57;;;2.28;;
21941;SDS011;11135;54.192;15.670;2023-04-01T14:39:39;5.75;;;2.00;;
21941;SDS011;11135;54.192;15.670;2023-04-01T14:43:03;3.78;;;1.52;;
21941;SDS011;11135;54.192;15.670;2023-04-01T14:49:23;6.30;;;1.95;;
21941;SDS011;11135;54.192;15.670;2023-04-01T14:52:30;3.30;;;1.73;;
21941;SDS011;11135;54.192;15.670;2023-04-01T14:55:44;6.43;;;2.05;;
21941;SDS011;11135;54.192;15.670;2023-04-01T14:58:57;5.75;;;2.03;;
21941;SDS011;11135;54.192;15.670;2023-04-01T15:02:06;5.18;;;2.00;;
21941;SDS011;11135;54.192;15.670;2023-04-01T15:05:23;6.85;;;2.33;;
21941;SDS011;11135;54.192;15.670;2023-04-01T15:08:33;7.93;;;2.30;;
21941;SDS011;11135;54.192;15.670;2023-04-01T15:11:47;5.93;;;2.35;;
21941;SDS011;11135;54.192;15.670;2023-04-01T15:15:04;3.65;;;1.70;;
21941;SDS011;11135;54.192;15.670;2023-04-01T15:18:16;6.57;;;2.15;;
21941;SDS011;11135;54.192;15.670;2023-04-01T15:21:30;4.47;;;2.13;;
21941;SDS011;11135;54.192;15.670;2023-04-01T15:24:53;7.03;;;1.90;;
21941;SDS011;11135;54.192;15.670;2023-04-01T15:28:04;6.00;;;2.45;;
21941;SDS011;11135;54.192;15.670;2023-04-01T15:31:11;4.32;;;1.92;;
21941;SDS011;11135;54.192;15.670;2023-04-01T15:34:21;6.35;;;2.40;;
21941;SDS011;11135;54.192;15.670;2023-04-01T15:37:34;7.75;;;2.08;;
21941;SDS011;11135;54.192;15.670;2023-04-01T15:40:47;7.18;;;2.83;;
21941;SDS011;11135;54.192;15.670;2023-04-01T15:43:56;7.18;;;2.30;;
21941;SDS011;11135;54.192;15.670;2023-04-01T15:47:02;6.68;;;2.53;;
21941;SDS011;11135;54.192;15.670;2023-04-01T16:00:29;10.13;;;2.50;;
21941;SDS011;11135;54.192;15.670;2023-04-01T16:03:38;8.38;;;3.03;;
21941;SDS011;11135;54.192;15.670;2023-04-01T16:06:51;6.67;;;2.47;;
21941;SDS011;11135;54.192;15.670;2023-04-01T16:10:04;6.53;;;3.13;;
21941;SDS011;11135;54.192;15.670;2023-04-01T16:13:19;8.27;;;2.83;;
21941;SDS011;11135;54.192;15.670;2023-04-01T16:16:33;7.25;;;3.33;;
21941;SDS011;11135;54.192;15.670;2023-04-01T16:19:44;5.13;;;2.63;;
21941;SDS011;11135;54.192;15.670;2023-04-01T16:22:59;4.18;;;1.80;;
21941;SDS011;11135;54.192;15.670;2023-04-01T16:26:08;5.53;;;1.50;;
21941;SDS011;11135;54.192;15.670;2023-04-01T16:29:18;4.00;;;1.77;;
21941;SDS011;11135;54.192;15.670;2023-04-01T16:32:37;8.23;;;2.28;;
21941;SDS011;11135;54.192;15.670;2023-04-01T16:35:43;5.07;;;2.00;;
21941;SDS011;11135;54.192;15.670;2023-04-01T16:38:55;8.88;;;3.70;;
21941;SDS011;11135;54.192;15.670;2023-04-01T16:42:15;6.82;;;3.15;;
21941;SDS011;11135;54.192;15.670;2023-04-01T16:45:30;5.25;;;1.73;;
21941;SDS011;11135;54.192;15.670;2023-04-01T16:48:49;8.10;;;2.20;;
21941;SDS011;11135;54.192;15.670;2023-04-01T16:52:12;3.22;;;1.70;;
21941;SDS011;11135;54.192;15.670;2023-04-01T16:55:21;9.80;;;2.17;;
21941;SDS011;11135;54.192;15.670;2023-04-01T16:58:32;5.93;;;1.67;;
21941;SDS011;11135;54.192;15.670;2023-04-01T17:01:42;7.57;;;2.40;;
21941;SDS011;11135;54.192;15.670;2023-04-01T17:05:05;10.15;;;4.18;;
21941;SDS011;11135;54.192;15.670;2023-04-01T17:08:43;5.38;;;2.42;;
21941;SDS011;11135;54.192;15.670;2023-04-01T17:11:55;4.75;;;1.58;;
21941;SDS011;11135;54.192;15.670;2023-04-01T17:15:10;3.85;;;1.65;;
21941;SDS011;11135;54.192;15.670;2023-04-01T17:18:19;4.07;;;1.63;;
21941;SDS011;11135;54.192;15.670;2023-04-01T17:21:44;4.93;;;2.08;;
21941;SDS011;11135;54.192;15.670;2023-04-01T17:25:02;4.03;;;1.60;;
21941;SDS011;11135;54.192;15.670;2023-04-01T17:28:22;8.32;;;2.78;;
21941;SDS011;11135;54.192;15.670;2023-04-01T17:31:36;8.30;;;3.33;;
21941;SDS011;11135;54.192;15.670;2023-04-01T17:34:47;5.85;;;2.20;;
21941;SDS011;11135;54.192;15.670;2023-04-01T17:38:13;4.22;;;1.98;;
21941;SDS011;11135;54.192;15.670;2023-04-01T17:41:26;5.85;;;2.45;;
21941;SDS011;11135;54.192;15.670;2023-04-01T17:44:44;5.28;;;1.73;;
21941;SDS011;11135;54.192;15.670;2023-04-01T17:48:03;3.60;;;1.92;;
21941;SDS011;11135;54.192;15.670;2023-04-01T17:51:20;2.17;;;1.20;;
21941;SDS011;11135;54.192;15.670;2023-04-01T17:54:36;4.22;;;1.75;;
21941;SDS011;11135;54.192;15.670;2023-04-01T17:57:49;5.72;;;2.15;;
21941;SDS011;11135;54.192;15.670;2023-04-01T18:01:16;3.33;;;1.33;;
21941;SDS011;11135;54.192;15.670;2023-04-01T18:08:11;5.18;;;1.60;;
21941;SDS011;11135;54.192;15.670;2023-04-01T18:11:25;3.15;;;1.52;;
21941;SDS011;11135;54.192;15.670;2023-04-01T18:14:50;8.82;;;3.30;;
21941;SDS011;11135;54.192;15.670;2023-04-01T18:18:09;7.80;;;2.72;;
21941;SDS011;11135;54.192;15.670;2023-04-01T18:21:27;5.93;;;2.35;;
21941;SDS011;11135;54.192;15.670;2023-04-01T18:24:35;5.60;;;1.52;;
21941;SDS011;11135;54.192;15.670;2023-04-01T18:27:50;3.70;;;1.38;;
21941;SDS011;11135;54.192;15.670;2023-04-01T18:31:05;7.55;;;1.50;;
21941;SDS011;11135;54.192;15.670;2023-04-01T18:34:13;3.75;;;1.55;;
21941;SDS011;11135;54.192;15.670;2023-04-01T18:37:25;4.63;;;1.55;;
21941;SDS011;11135;54.192;15.670;2023-04-01T18:40:36;4.20;;;1.15;;
21941;SDS011;11135;54.192;15.670;2023-04-01T18:43:51;2.83;;;0.90;;
21941;SDS011;11135;54.192;15.670;2023-04-01T18:47:12;4.80;;;1.40;;
21941;SDS011;11135;54.192;15.670;2023-04-01T18:50:33;3.72;;;1.45;;
21941;SDS011;11135;54.192;15.670;2023-04-01T18:53:44;3.20;;;1.33;;
21941;SDS011;11135;54.192;15.670;2023-04-01T18:57:04;5.22;;;1.63;;
21941;SDS011;11135;54.192;15.670;2023-04-01T19:00:18;2.40;;;1.05;;
21941;SDS011;11135;54.192;15.670;2023-04-01T19:03:31;3.47;;;1.48;;
21941;SDS011;11135;54.192;15.670;2023-04-01T19:06:43;3.80;;;1.33;;
21941;SDS011;11135;54.192;15.670;2023-04-01T19:09:50;2.67;;;1.10;;
21941;SDS011;11135;54.192;15.670;2023-04-01T19:12:59;5.05;;;1.30;;
21941;SDS011;11135;54.192;15.670;2023-04-01T19:16:19;3.60;;;1.75;;
21941;SDS011;11135;54.192;15.670;2023-04-01T19:19:34;3.55;;;1.40;;
21941;SDS011;11135;54.192;15.670;2023-04-01T19:22:52;3.25;;;1.73;;
21941;SDS011;11135;54.192;15.670;2023-04-01T19:26:10;6.10;;;1.75;;
21941;SDS011;11135;54.192;15.670;2023-04-01T19:29:28;5.95;;;1.25;;
21941;SDS011;11135;54.192;15.670;2023-04-01T19:32:45;4.95;;;1.45;;
21941;SDS011;11135;54.192;15.670;2023-04-01T19:35:59;6.35;;;1.30;;
21941;SDS011;11135;54.192;15.670;2023-04-01T19:39:23;4.82;;;1.30;;
21941;SDS011;11135;54.192;15.670;2023-04-01T19:42:36;3.25;;;1.30;;
21941;SDS011;11135;54.192;15.670;2023-04-01T19:45:51;4.70;;;1.42;;
21941;SDS011;11135;54.192;15.670;2023-04-01T19:49:06;4.30;;;1.05;;
21941;SDS011;11135;54.192;15.670;2023-04-01T19:52:18;7.13;;;2.15;;
21941;SDS011;11135;54.192;15.670;2023-04-01T19:55:30;6.43;;;2.35;;
21941;SDS011;11135;54.192;15.670;2023-04-01T19:58:40;7.72;;;1.30;;
21941;SDS011;11135;54.192;15.670;2023-04-01T20:01:51;6.15;;;1.67;;
21941;SDS011;11135;54.192;15.670;2023-04-01T20:05:09;8.25;;;1.23;;
21941;SDS011;11135;54.192;15.670;2023-04-01T20:08:28;4.88;;;1.60;;
21941;SDS011;11135;54.192;15.670;2023-04-01T20:11:41;6.90;;;1.75;;
21941;SDS011;11135;54.192;15.670;2023-04-01T20:14:52;5.15;;;1.23;;
21941;SDS011;11135;54.192;15.670;2023-04-01T20:17:59;2.88;;;0.90;;
21941;SDS011;11135;54.192;15.670;2023-04-01T20:21:15;1.73;;;0.80;;
21941;SDS011;11135;54.192;15.670;2023-04-01T20:24:27;3.42;;;1.40;;
21941;SDS011;11135;54.192;15.670;2023-04-01T20:27:35;3.53;;;1.50;;
21941;SDS011;11135;54.192;15.670;2023-04-01T20:34:19;2.53;;;1.02;;
21941;SDS011;11135;54.192;15.670;2023-04-01T20:37:37;3.25;;;1.30;;
21941;SDS011;11135;54.192;15.670;2023-04-01T20:40:45;4.60;;;1.23;;
21941;SDS011;11135;54.192;15.670;2023-04-01T20:44:09;3.50;;;1.20;;
21941;SDS011;11135;54.192;15.670;2023-04-01T20:47:17;5.82;;;1.10;;
21941;SDS011;11135;54.192;15.670;2023-04-01T20:50:32;1.60;;;1.10;;
21941;SDS011;11135;54.192;15.670;2023-04-01T20:53:49;2.58;;;1.05;;
21941;SDS011;11135;54.192;15.670;2023-04-01T20:56:57;7.00;;;2.15;;
21941;SDS011;11135;54.192;15.670;2023-04-01T21:00:17;5.45;;;1.40;;
21941;SDS011;11135;54.192;15.670;2023-04-01T21:03:31;4.82;;;1.10;;
21941;SDS011;11135;54.192;15.670;2023-04-01T21:06:56;3.25;;;1.25;;
21941;SDS011;11135;54.192;15.670;2023-04-01T21:13:33;5.35;;;1.00;;